Absecon, New Jersey
Current Conditions -  °F | °C
As of 9:54 AM on Monday 22 Dec 2014 (Local Time) from KACY Reporting Station
Haze Haze  
Wind Chill: 29°   Ceiling: Unl
Heat Index: 33°   Visibility: 6mi
Dew Point: 29°   Wind: 5mph
Humidity: 85%   Direction: 350°N
Pressure: 30.31"   Gusts: NA
Location:  39.43°N, 74.51°W
Report Text: KACY 221454Z 35004KT 6SM BR CLR 01/M02 A3031 RMK AO2 SLP264 T00061017 53004
Loading
Personal Weather Stations






























Interactive Weather Map New forecast layout! Learn more

10-Day Weather Forecast

Advertisements
Track Severe Weather on mobile